createdAt,value
2018-12-30T00:00:28.983Z,1011.19
2018-12-30T00:01:29.048Z,1011.25
2018-12-30T00:02:28.957Z,1011.24
2018-12-30T00:03:28.947Z,1011.41
2018-12-30T00:04:28.972Z,1011.37
2018-12-30T00:05:28.942Z,1011.32
2018-12-30T00:06:28.927Z,1011.30
2018-12-30T00:07:28.958Z,1011.44
2018-12-30T00:08:28.906Z,1011.39
2018-12-30T00:09:28.926Z,1011.45
2018-12-30T00:10:28.872Z,1011.49
2018-12-30T00:11:28.872Z,1011.51
2018-12-30T00:12:28.898Z,1011.52
2018-12-30T00:13:28.844Z,1011.56
2018-12-30T00:14:28.856Z,1011.51
2018-12-30T00:15:28.857Z,1011.48
2018-12-30T00:16:28.838Z,1011.40
2018-12-30T00:17:28.798Z,1011.50
2018-12-30T00:18:28.792Z,1011.54
2018-12-30T00:19:28.783Z,1011.59
2018-12-30T00:20:28.805Z,1011.60
2018-12-30T00:21:28.748Z,1011.63
2018-12-30T00:22:28.759Z,1011.59
2018-12-30T00:23:28.725Z,1011.66
2018-12-30T00:24:28.717Z,1011.68
2018-12-30T00:25:28.753Z,1011.69
2018-12-30T00:26:28.691Z,1011.70
2018-12-30T00:27:28.684Z,1011.66
2018-12-30T00:28:28.672Z,1011.68
2018-12-30T00:29:28.660Z,1011.78
2018-12-30T00:30:28.685Z,1011.75
2018-12-30T00:31:28.643Z,1011.71
2018-12-30T00:32:28.666Z,1011.81
2018-12-30T00:33:28.638Z,1011.82
2018-12-30T00:34:28.602Z,1011.89
2018-12-30T00:35:28.645Z,1011.88
2018-12-30T00:36:28.584Z,1011.91
2018-12-30T00:37:28.570Z,1011.85
2018-12-30T00:38:28.562Z,1011.94
2018-12-30T00:39:28.617Z,1011.93
2018-12-30T00:40:28.570Z,1011.88
2018-12-30T00:41:28.539Z,1011.88
2018-12-30T00:42:28.552Z,1011.95
2018-12-30T00:43:28.505Z,1011.95
2018-12-30T00:44:28.531Z,1011.94
2018-12-30T00:45:28.506Z,1011.94
2018-12-30T00:46:28.473Z,1011.96
2018-12-30T00:47:28.494Z,1011.89
2018-12-30T00:48:28.480Z,1011.92
2018-12-30T00:49:28.451Z,1011.98
2018-12-30T00:50:28.456Z,1011.95
2018-12-30T00:51:28.440Z,1011.94
2018-12-30T00:52:28.428Z,1011.96
2018-12-30T00:53:28.392Z,1011.97
2018-12-30T00:54:28.383Z,1012.00
2018-12-30T00:55:28.384Z,1012.04
2018-12-30T00:56:28.447Z,1012.08
2018-12-30T00:57:28.357Z,1012.07
2018-12-30T00:58:28.357Z,1012.13
2018-12-30T00:59:28.332Z,1012.17
2018-12-30T01:00:28.328Z,1012.14
2018-12-30T01:01:28.343Z,1012.16
2018-12-30T01:02:28.298Z,1012.18
2018-12-30T01:03:28.296Z,1012.12
2018-12-30T01:04:28.282Z,1012.06
2018-12-30T01:05:28.274Z,1012.14
2018-12-30T01:06:28.283Z,1012.19
2018-12-30T01:07:28.284Z,1012.25
2018-12-30T01:08:28.267Z,1012.25
2018-12-30T01:09:28.217Z,1012.28
2018-12-30T01:10:28.228Z,1012.24
2018-12-30T01:11:28.224Z,1012.22
2018-12-30T01:12:28.183Z,1012.30
2018-12-30T01:13:28.177Z,1012.28
2018-12-30T01:14:28.162Z,1012.31
2018-12-30T01:15:28.149Z,1012.32
2018-12-30T01:16:28.161Z,1012.27
2018-12-30T01:17:28.140Z,1012.32
2018-12-30T01:18:28.127Z,1012.31
2018-12-30T01:19:28.122Z,1012.34
2018-12-30T01:20:28.099Z,1012.25
2018-12-30T01:21:28.177Z,1012.36
2018-12-30T01:22:28.095Z,1012.27
2018-12-30T01:23:28.060Z,1012.39
2018-12-30T01:24:28.055Z,1012.44
2018-12-30T01:25:28.175Z,1012.32
2018-12-30T01:26:28.071Z,1012.42
2018-12-30T01:27:28.026Z,1012.47
2018-12-30T01:28:28.014Z,1012.49
2018-12-30T01:29:28.032Z,1012.44
2018-12-30T01:30:27.999Z,1012.47
2018-12-30T01:31:27.996Z,1012.40
2018-12-30T01:32:27.974Z,1012.47
2018-12-30T01:33:27.959Z,1012.50
2018-12-30T01:34:27.943Z,1012.53
2018-12-30T01:35:27.964Z,1012.50
2018-12-30T01:36:27.941Z,1012.45
2018-12-30T01:37:27.923Z,1012.50
2018-12-30T01:38:27.902Z,1012.48
2018-12-30T01:39:27.946Z,1012.42
2018-12-30T01:40:27.949Z,1012.42
2018-12-30T01:41:27.901Z,1012.44
2018-12-30T01:42:27.876Z,1012.44
2018-12-30T01:43:27.878Z,1012.43
2018-12-30T01:44:27.843Z,1012.48
2018-12-30T01:45:27.828Z,1012.55
2018-12-30T01:46:27.829Z,1012.53
2018-12-30T01:47:27.815Z,1012.60
2018-12-30T01:48:27.791Z,1012.58
2018-12-30T01:49:27.824Z,1012.58
2018-12-30T01:50:27.773Z,1012.57
2018-12-30T01:51:32.945Z,1012.62
2018-12-30T01:52:28.759Z,1012.72
2018-12-30T01:53:27.734Z,1012.74
2018-12-30T01:54:27.767Z,1012.76
2018-12-30T01:55:27.704Z,1012.77
2018-12-30T01:56:27.709Z,1012.84
2018-12-30T01:57:27.720Z,1012.82
2018-12-30T01:58:27.672Z,1012.85
2018-12-30T01:59:27.682Z,1012.77
2018-12-30T02:00:27.669Z,1012.72
2018-12-30T02:01:27.643Z,1012.77
2018-12-30T02:02:27.658Z,1012.73
2018-12-30T02:03:27.650Z,1012.73
2018-12-30T02:04:27.621Z,1012.74
2018-12-30T02:05:27.601Z,1012.67
2018-12-30T02:06:27.602Z,1012.71
2018-12-30T02:07:27.603Z,1012.70
2018-12-30T02:08:27.563Z,1012.74
2018-12-30T02:09:27.575Z,1012.78
2018-12-30T02:10:27.543Z,1012.75
2018-12-30T02:11:27.552Z,1012.76
2018-12-30T02:12:27.541Z,1012.78
2018-12-30T02:13:27.534Z,1012.80
2018-12-30T02:14:27.491Z,1012.77
2018-12-30T02:15:27.484Z,1012.77
2018-12-30T02:16:27.483Z,1012.84
2018-12-30T02:17:27.501Z,1012.91
2018-12-30T02:18:27.457Z,1012.93
2018-12-30T02:19:27.482Z,1012.91
2018-12-30T02:20:27.433Z,1012.90
2018-12-30T02:21:27.425Z,1012.89
2018-12-30T02:22:27.470Z,1012.95
2018-12-30T02:23:27.408Z,1013.00
2018-12-30T02:24:27.396Z,1012.97
2018-12-30T02:25:27.395Z,1012.89
2018-12-30T02:26:27.359Z,1012.91
2018-12-30T02:27:27.397Z,1012.90
2018-12-30T02:28:27.360Z,1012.92
2018-12-30T02:29:27.326Z,1012.92
2018-12-30T02:30:27.318Z,1012.98
2018-12-30T02:31:27.319Z,1013.01
2018-12-30T02:32:27.339Z,1012.96
2018-12-30T02:33:27.283Z,1013.01
2018-12-30T02:34:27.271Z,1013.00
2018-12-30T02:35:27.259Z,1012.96
2018-12-30T02:36:27.246Z,1013.02
2018-12-30T02:37:27.254Z,1012.99
2018-12-30T02:38:27.279Z,1013.01
2018-12-30T02:39:27.215Z,1013.04
2018-12-30T02:40:27.204Z,1013.07
2018-12-30T02:41:27.196Z,1013.11
2018-12-30T02:42:27.186Z,1013.15
2018-12-30T02:43:27.194Z,1013.11
2018-12-30T02:44:27.189Z,1013.11
2018-12-30T02:45:27.149Z,1013.15
2018-12-30T02:46:27.145Z,1013.11
2018-12-30T02:47:27.128Z,1013.08
2018-12-30T02:48:27.142Z,1013.02
2018-12-30T02:49:27.110Z,1013.07
2018-12-30T02:50:27.109Z,1013.01
2018-12-30T02:51:27.140Z,1013.12
2018-12-30T02:52:27.075Z,1013.14
2018-12-30T02:53:27.095Z,1013.22
2018-12-30T02:54:27.101Z,1013.16
2018-12-30T02:55:27.048Z,1013.13
2018-12-30T02:56:27.029Z,1013.17
2018-12-30T02:57:27.026Z,1013.15
2018-12-30T02:58:27.078Z,1013.12
2018-12-30T02:59:27.002Z,1013.10
2018-12-30T03:00:26.995Z,1013.10
2018-12-30T03:01:26.978Z,1013.13
2018-12-30T03:02:27.002Z,1013.20
2018-12-30T03:03:26.984Z,1013.18
2018-12-30T03:04:26.953Z,1013.20
2018-12-30T03:05:26.963Z,1013.21
2018-12-30T03:06:26.921Z,1013.20
2018-12-30T03:07:26.934Z,1013.17
2018-12-30T03:08:26.923Z,1013.12
2018-12-30T03:09:26.883Z,1013.12
2018-12-30T03:10:26.887Z,1013.08
2018-12-30T03:11:26.875Z,1013.09
2018-12-30T03:12:26.906Z,1012.98
2018-12-30T03:13:26.867Z,1013.01
2018-12-30T03:14:26.834Z,1013.01
2018-12-30T03:15:26.834Z,1013.06
2018-12-30T03:16:26.810Z,1013.07
2018-12-30T03:17:26.854Z,1013.03
2018-12-30T03:18:26.822Z,1013.02
2018-12-30T03:19:26.787Z,1012.99
2018-12-30T03:20:26.762Z,1012.95
2018-12-30T03:21:26.756Z,1012.99
2018-12-30T03:22:26.824Z,1013.02
2018-12-30T03:23:26.772Z,1013.03
2018-12-30T03:24:26.726Z,1013.06
2018-12-30T03:25:26.730Z,1013.15
2018-12-30T03:26:26.697Z,1013.14
2018-12-30T03:27:26.714Z,1012.92
2018-12-30T03:28:26.727Z,1012.98
2018-12-30T03:29:26.663Z,1013.09
2018-12-30T03:30:26.652Z,1013.09
2018-12-30T03:31:26.669Z,1013.06
2018-12-30T03:32:26.677Z,1013.05
2018-12-30T03:33:26.626Z,1013.08
2018-12-30T03:34:26.641Z,1012.99
2018-12-30T03:35:26.602Z,1012.99
2018-12-30T03:36:26.629Z,1013.03
2018-12-30T03:37:26.595Z,1012.96
2018-12-30T03:38:26.571Z,1012.98
2018-12-30T03:39:26.591Z,1012.95
2018-12-30T03:40:26.573Z,1012.90
2018-12-30T03:41:26.560Z,1012.88
2018-12-30T03:42:26.520Z,1012.81
2018-12-30T03:43:26.510Z,1012.76
2018-12-30T03:44:26.528Z,1012.82
2018-12-30T03:45:26.510Z,1012.94
2018-12-30T03:46:26.487Z,1013.03
2018-12-30T03:47:26.473Z,1012.97
2018-12-30T03:48:26.462Z,1012.88
2018-12-30T03:49:26.477Z,1012.85
2018-12-30T03:50:26.494Z,1012.84
2018-12-30T03:51:26.438Z,1012.80
2018-12-30T03:52:26.417Z,1012.76
2018-12-30T03:53:26.399Z,1012.62
2018-12-30T03:54:26.411Z,1012.50
2018-12-30T03:55:26.381Z,1012.60
2018-12-30T03:56:26.365Z,1012.80
2018-12-30T03:57:26.378Z,1013.07
2018-12-30T03:58:26.348Z,1013.08
2018-12-30T03:59:26.356Z,1012.98
2018-12-30T04:00:26.365Z,1012.93
2018-12-30T04:01:26.316Z,1012.97
2018-12-30T04:02:26.304Z,1013.00
2018-12-30T04:03:26.294Z,1012.98
2018-12-30T04:04:26.303Z,1012.99
2018-12-30T04:05:26.270Z,1013.04
2018-12-30T04:06:26.256Z,1013.02
2018-12-30T04:07:26.245Z,1012.96
2018-12-30T04:08:26.244Z,1013.02
2018-12-30T04:09:26.249Z,1013.07
2018-12-30T04:10:26.243Z,1013.15
2018-12-30T04:11:26.200Z,1013.16
2018-12-30T04:12:26.199Z,1013.13
2018-12-30T04:13:26.174Z,1013.15
2018-12-30T04:14:26.218Z,1013.24
2018-12-30T04:15:26.155Z,1013.21
2018-12-30T04:16:26.150Z,1013.07
2018-12-30T04:17:26.131Z,1012.98
2018-12-30T04:18:26.118Z,1012.93
2018-12-30T04:19:26.131Z,1013.07
2018-12-30T04:20:26.123Z,1013.27
2018-12-30T04:21:26.083Z,1013.19
2018-12-30T04:22:26.117Z,1013.11
2018-12-30T04:23:26.078Z,1013.11
2018-12-30T04:24:26.097Z,1013.25
2018-12-30T04:25:26.062Z,1013.19
2018-12-30T04:26:26.033Z,1013.19
2018-12-30T04:27:26.050Z,1013.20
2018-12-30T04:28:26.044Z,1013.18
2018-12-30T04:29:25.997Z,1013.20
2018-12-30T04:30:26.012Z,1013.23
2018-12-30T04:31:26.005Z,1013.26
2018-12-30T04:32:25.991Z,1013.32
2018-12-30T04:33:25.948Z,1013.31
2018-12-30T04:34:25.948Z,1013.32
2018-12-30T04:35:25.972Z,1013.32
2018-12-30T04:36:25.925Z,1013.34
2018-12-30T04:37:25.918Z,1013.37
2018-12-30T04:38:25.902Z,1013.25
2018-12-30T04:39:25.926Z,1013.32
2018-12-30T04:40:25.902Z,1013.33
2018-12-30T04:41:25.868Z,1013.26
2018-12-30T04:42:25.861Z,1013.39
2018-12-30T04:43:25.854Z,1013.36
2018-12-30T04:44:25.837Z,1013.32
2018-12-30T04:45:25.888Z,1013.29
2018-12-30T04:46:25.822Z,1013.25
2018-12-30T04:47:25.808Z,1013.31
2018-12-30T04:48:25.790Z,1013.37
2018-12-30T04:49:25.773Z,1013.38
2018-12-30T04:50:25.814Z,1013.34
2018-12-30T04:51:25.753Z,1013.34
2018-12-30T04:52:26.283Z,1013.34
2018-12-30T04:53:25.727Z,1013.25
2018-12-30T04:54:25.716Z,1013.23
2018-12-30T04:55:25.733Z,1013.16
2018-12-30T04:56:25.744Z,1013.19
2018-12-30T04:57:25.690Z,1013.31
2018-12-30T04:58:25.679Z,1013.36
2018-12-30T04:59:25.690Z,1013.43
2018-12-30T05:00:25.685Z,1013.47
2018-12-30T05:01:25.648Z,1013.46
2018-12-30T05:02:25.674Z,1013.44
2018-12-30T05:03:25.630Z,1013.42
2018-12-30T05:04:25.615Z,1013.50
2018-12-30T05:05:25.620Z,1013.50
2018-12-30T05:06:25.596Z,1013.55
2018-12-30T05:07:25.582Z,1013.55
2018-12-30T05:08:25.576Z,1013.55
2018-12-30T05:09:25.564Z,1013.55
2018-12-30T05:10:25.573Z,1013.56
2018-12-30T05:11:25.531Z,1013.54
2018-12-30T05:12:25.525Z,1013.58
2018-12-30T05:13:25.545Z,1013.61
2018-12-30T05:14:25.513Z,1013.55
2018-12-30T05:15:25.513Z,1013.55
2018-12-30T05:16:25.473Z,1013.59
2018-12-30T05:17:25.466Z,1013.62
2018-12-30T05:18:25.467Z,1013.64
2018-12-30T05:19:25.450Z,1013.64
2018-12-30T05:20:25.525Z,1013.75
2018-12-30T05:21:25.448Z,1013.71
2018-12-30T05:22:25.412Z,1013.72
2018-12-30T05:23:25.453Z,1013.72
2018-12-30T05:24:25.394Z,1013.72
2018-12-30T05:25:25.378Z,1013.79
2018-12-30T05:26:25.386Z,1013.73
2018-12-30T05:27:25.347Z,1013.72
2018-12-30T05:28:25.355Z,1013.71
2018-12-30T05:29:25.333Z,1013.72
2018-12-30T05:30:25.356Z,1013.77
2018-12-30T05:31:25.346Z,1013.78
2018-12-30T05:32:25.300Z,1013.75
2018-12-30T05:33:25.292Z,1013.70
2018-12-30T05:34:25.283Z,1013.70
2018-12-30T05:35:25.271Z,1013.72
2018-12-30T05:36:25.281Z,1013.83
2018-12-30T05:37:25.255Z,1013.91
2018-12-30T05:38:25.230Z,1014.01
2018-12-30T05:39:25.227Z,1013.88
2018-12-30T05:40:25.211Z,1013.84
2018-12-30T05:41:25.310Z,1013.89
2018-12-30T05:42:25.196Z,1013.87
2018-12-30T05:43:25.174Z,1013.89
2018-12-30T05:44:25.247Z,1013.91
2018-12-30T05:45:25.163Z,1013.97
2018-12-30T05:46:25.165Z,1014.04
2018-12-30T05:47:25.134Z,1014.10
2018-12-30T05:48:25.176Z,1014.18
2018-12-30T05:49:25.103Z,1014.19
2018-12-30T05:50:25.099Z,1014.17
2018-12-30T05:51:25.164Z,1014.23
2018-12-30T05:52:25.071Z,1014.28
2018-12-30T05:53:25.078Z,1014.25
2018-12-30T05:54:25.053Z,1014.18
2018-12-30T05:55:25.078Z,1014.16
2018-12-30T05:56:25.054Z,1014.14
2018-12-30T05:57:25.025Z,1014.13
2018-12-30T05:58:25.009Z,1014.17
2018-12-30T05:59:25.040Z,1014.14
2018-12-30T06:00:24.990Z,1014.11
2018-12-30T06:01:25.000Z,1014.06
2018-12-30T06:02:24.970Z,1013.99
2018-12-30T06:03:24.971Z,1013.96
2018-12-30T06:04:24.947Z,1013.88
2018-12-30T06:05:24.991Z,1013.79
2018-12-30T06:06:24.954Z,1013.78
2018-12-30T06:07:24.913Z,1013.88
2018-12-30T06:08:24.897Z,1013.96
2018-12-30T06:09:24.888Z,1014.00
2018-12-30T06:10:24.876Z,1014.03
2018-12-30T06:11:24.885Z,1014.04
2018-12-30T06:12:24.883Z,1014.13
2018-12-30T06:13:24.849Z,1014.24
2018-12-30T06:14:24.836Z,1014.15
2018-12-30T06:15:24.846Z,1014.07
2018-12-30T06:16:24.816Z,1014.02
2018-12-30T06:17:24.835Z,1014.05
2018-12-30T06:18:24.788Z,1014.10
2018-12-30T06:19:24.789Z,1014.16
2018-12-30T06:20:24.762Z,1014.12
2018-12-30T06:21:24.750Z,1014.08
2018-12-30T06:22:24.760Z,1014.15
2018-12-30T06:23:24.799Z,1014.20
2018-12-30T06:24:24.730Z,1014.29
2018-12-30T06:25:24.723Z,1014.24
2018-12-30T06:26:24.690Z,1014.22
2018-12-30T06:27:24.720Z,1014.22
2018-12-30T06:28:24.698Z,1014.21
2018-12-30T06:29:24.660Z,1014.26
2018-12-30T06:30:24.653Z,1014.27
2018-12-30T06:31:24.648Z,1014.19
2018-12-30T06:32:24.661Z,1014.20
2018-12-30T06:33:24.740Z,1014.15
2018-12-30T06:34:24.603Z,1014.18
2018-12-30T06:35:24.596Z,1014.25
2018-12-30T06:36:24.586Z,1014.32
2018-12-30T06:37:24.593Z,1014.28
2018-12-30T06:38:24.569Z,1014.24
2018-12-30T06:39:24.554Z,1014.31
2018-12-30T06:40:24.579Z,1014.49
2018-12-30T06:41:24.533Z,1014.49
2018-12-30T06:42:24.542Z,1014.42
2018-12-30T06:43:24.544Z,1014.38
2018-12-30T06:44:24.503Z,1014.38
2018-12-30T06:45:24.497Z,1014.46
2018-12-30T06:46:24.492Z,1014.46
2018-12-30T06:47:24.498Z,1014.41
2018-12-30T06:48:24.451Z,1014.41
2018-12-30T06:49:24.444Z,1014.53
2018-12-30T06:50:24.447Z,1014.64
2018-12-30T06:51:24.418Z,1014.63
2018-12-30T06:52:24.429Z,1014.57
2018-12-30T06:53:24.453Z,1014.58
2018-12-30T06:54:24.389Z,1014.66
2018-12-30T06:55:24.379Z,1014.67
2018-12-30T06:56:24.371Z,1014.64
2018-12-30T06:57:24.389Z,1014.57
2018-12-30T06:58:24.348Z,1014.61
2018-12-30T06:59:24.333Z,1014.69
2018-12-30T07:00:24.354Z,1014.79
2018-12-30T07:01:24.317Z,1014.79
2018-12-30T07:02:24.336Z,1014.76
2018-12-30T07:03:24.281Z,1014.84
2018-12-30T07:04:24.285Z,1014.94
2018-12-30T07:05:24.268Z,1014.94
2018-12-30T07:06:24.300Z,1014.91
2018-12-30T07:07:24.265Z,1014.92
2018-12-30T07:08:24.259Z,1014.95
2018-12-30T07:09:24.269Z,1014.90
2018-12-30T07:10:24.207Z,1014.87
2018-12-30T07:11:24.199Z,1014.88
2018-12-30T07:12:24.193Z,1014.98
2018-12-30T07:13:24.200Z,1015.03
2018-12-30T07:14:24.196Z,1015.01
2018-12-30T07:15:24.154Z,1015.07
2018-12-30T07:16:24.141Z,1015.05
2018-12-30T07:17:24.128Z,1015.15
2018-12-30T07:18:24.147Z,1015.17
2018-12-30T07:19:24.117Z,1015.12
2018-12-30T07:20:24.131Z,1015.13
2018-12-30T07:21:24.087Z,1015.14
2018-12-30T07:22:24.082Z,1015.22
2018-12-30T07:23:24.090Z,1015.27
2018-12-30T07:24:24.052Z,1015.26
2018-12-30T07:25:24.043Z,1015.24
2018-12-30T07:26:24.027Z,1015.30
2018-12-30T07:27:24.018Z,1015.27
2018-12-30T07:28:24.068Z,1015.30
2018-12-30T07:29:24.006Z,1015.29
2018-12-30T07:30:24.001Z,1015.33
2018-12-30T07:31:23.972Z,1015.35
2018-12-30T07:32:23.969Z,1015.36
2018-12-30T07:33:24.014Z,1015.35
2018-12-30T07:34:23.943Z,1015.41
2018-12-30T07:35:23.941Z,1015.40
2018-12-30T07:36:23.945Z,1015.37
2018-12-30T07:37:23.910Z,1015.38
2018-12-30T07:38:23.915Z,1015.34
2018-12-30T07:39:23.893Z,1015.34
2018-12-30T07:40:23.876Z,1015.40
2018-12-30T07:41:24.027Z,1015.35
2018-12-30T07:42:23.856Z,1015.37
2018-12-30T07:43:23.890Z,1015.37
2018-12-30T07:44:23.828Z,1015.35
2018-12-30T07:45:23.821Z,1015.33
2018-12-30T07:46:23.819Z,1015.34
2018-12-30T07:47:23.801Z,1015.29
2018-12-30T07:48:23.813Z,1015.24
2018-12-30T07:49:23.776Z,1015.30
2018-12-30T07:50:23.800Z,1015.29
2018-12-30T07:51:23.761Z,1015.30
2018-12-30T07:52:23.749Z,1015.29
2018-12-30T07:53:23.762Z,1015.27
2018-12-30T07:54:23.718Z,1015.28
2018-12-30T07:55:23.717Z,1015.27
2018-12-30T07:56:23.698Z,1015.22
2018-12-30T07:57:23.690Z,1015.26
2018-12-30T07:58:23.704Z,1015.26
2018-12-30T07:59:23.686Z,1015.28
2018-12-30T08:00:23.660Z,1015.27
2018-12-30T08:01:23.649Z,1015.30
2018-12-30T08:02:23.640Z,1015.27
2018-12-30T08:03:23.642Z,1015.35
2018-12-30T08:04:23.655Z,1015.35
2018-12-30T08:05:23.596Z,1015.34
2018-12-30T08:06:23.597Z,1015.35
2018-12-30T08:07:23.618Z,1015.30
2018-12-30T08:08:23.587Z,1015.30
2018-12-30T08:09:23.570Z,1015.32
2018-12-30T08:10:23.551Z,1015.27
2018-12-30T08:11:23.583Z,1015.32
2018-12-30T08:12:23.533Z,1015.33
2018-12-30T08:13:23.509Z,1015.35
2018-12-30T08:14:23.521Z,1015.34
2018-12-30T08:15:23.549Z,1015.26
2018-12-30T08:16:23.478Z,1015.27
2018-12-30T08:17:23.478Z,1015.34
2018-12-30T08:18:23.449Z,1015.33
2018-12-30T08:19:23.470Z,1015.35
2018-12-30T08:20:23.498Z,1015.31
2018-12-30T08:21:23.426Z,1015.37
2018-12-30T08:22:23.416Z,1015.38
2018-12-30T08:23:23.769Z,1015.36
2018-12-30T08:24:23.463Z,1015.33
2018-12-30T08:25:23.382Z,1015.27
2018-12-30T08:26:23.370Z,1015.23
2018-12-30T08:27:23.364Z,1015.29
2018-12-30T08:28:25.120Z,1015.35
2018-12-30T08:29:23.365Z,1015.32
2018-12-30T08:30:23.327Z,1015.34
2018-12-30T08:31:23.323Z,1015.28
2018-12-30T08:32:23.301Z,1015.28
2018-12-30T08:33:23.302Z,1015.35
2018-12-30T08:34:23.380Z,1015.49
2018-12-30T08:35:23.277Z,1015.53
2018-12-30T08:36:23.267Z,1015.49
2018-12-30T08:37:23.246Z,1015.49
2018-12-30T08:38:23.273Z,1015.52
2018-12-30T08:39:23.258Z,1015.51
2018-12-30T08:40:23.212Z,1015.40
2018-12-30T08:41:23.202Z,1015.45
2018-12-30T08:42:23.223Z,1015.44
2018-12-30T08:43:23.177Z,1015.40
2018-12-30T08:44:23.193Z,1015.45
2018-12-30T08:45:23.159Z,1015.46
2018-12-30T08:46:23.156Z,1015.50
2018-12-30T08:47:23.168Z,1015.51
2018-12-30T08:48:23.129Z,1015.54
2018-12-30T08:49:23.147Z,1015.60
2018-12-30T08:50:23.119Z,1015.59
2018-12-30T08:51:23.094Z,1015.66
2018-12-30T08:52:23.087Z,1015.70
2018-12-30T08:53:29.382Z,1015.68
2018-12-30T08:54:24.089Z,1015.65
2018-12-30T08:55:23.047Z,1015.66
2018-12-30T08:56:23.041Z,1015.71
2018-12-30T08:57:23.018Z,1015.73
2018-12-30T08:58:23.018Z,1015.71
2018-12-30T08:59:23.074Z,1015.70
2018-12-30T09:00:23.019Z,1015.66
2018-12-30T09:01:28.251Z,1015.72
2018-12-30T09:02:23.965Z,1015.77
2018-12-30T09:03:22.970Z,1015.71
2018-12-30T09:04:22.955Z,1015.73
2018-12-30T09:05:22.974Z,1015.77
2018-12-30T09:06:22.922Z,1015.68
2018-12-30T09:07:22.915Z,1015.78
2018-12-30T09:08:22.935Z,1015.69
2018-12-30T09:09:22.899Z,1015.66
2018-12-30T09:10:22.910Z,1015.65
2018-12-30T09:11:22.869Z,1015.68
2018-12-30T09:12:22.854Z,1015.67
2018-12-30T09:13:22.853Z,1015.67
2018-12-30T09:14:22.839Z,1015.67
2018-12-30T09:15:22.886Z,1015.70
2018-12-30T09:16:22.829Z,1015.75
2018-12-30T09:17:22.796Z,1015.71
2018-12-30T09:18:22.801Z,1015.70
2018-12-30T09:19:22.779Z,1015.75
2018-12-30T09:20:22.863Z,1015.77
2018-12-30T09:21:22.767Z,1015.76
2018-12-30T09:22:22.741Z,1015.78
2018-12-30T09:23:22.740Z,1015.77
2018-12-30T09:24:22.729Z,1015.80
2018-12-30T09:25:22.784Z,1015.79
2018-12-30T09:26:22.699Z,1015.84
2018-12-30T09:27:22.694Z,1015.83
2018-12-30T09:28:22.683Z,1015.84
2018-12-30T09:29:22.703Z,1015.87
2018-12-30T09:30:22.684Z,1015.92
2018-12-30T09:31:22.666Z,1015.96
2018-12-30T09:32:22.629Z,1015.96
2018-12-30T09:33:22.639Z,1015.91
2018-12-30T09:34:22.608Z,1015.94
2018-12-30T09:35:22.652Z,1015.87
2018-12-30T09:36:22.604Z,1015.95
2018-12-30T09:37:22.605Z,1015.92
2018-12-30T09:38:22.560Z,1015.92
2018-12-30T09:39:22.553Z,1016.04
2018-12-30T09:40:22.564Z,1016.03
2018-12-30T09:41:22.530Z,1016.02
2018-12-30T09:42:22.530Z,1016.00
2018-12-30T09:43:22.517Z,1016.02
2018-12-30T09:44:22.509Z,1015.98
2018-12-30T09:45:22.540Z,1015.91
2018-12-30T09:46:22.475Z,1015.91
2018-12-30T09:47:22.462Z,1015.88
2018-12-30T09:48:22.452Z,1015.89
2018-12-30T09:49:22.439Z,1015.90
2018-12-30T09:50:22.460Z,1015.86
2018-12-30T09:51:22.457Z,1015.86
2018-12-30T09:52:22.427Z,1015.85
2018-12-30T09:53:22.452Z,1015.84
2018-12-30T09:54:22.397Z,1015.82
2018-12-30T09:55:22.378Z,1015.77
2018-12-30T09:56:22.408Z,1015.73
2018-12-30T09:57:22.350Z,1015.78
2018-12-30T09:58:22.357Z,1015.78
2018-12-30T09:59:22.331Z,1015.77
2018-12-30T10:00:22.320Z,1015.76
2018-12-30T10:01:22.345Z,1015.76
2018-12-30T10:02:22.311Z,1015.75
2018-12-30T10:03:22.300Z,1015.75
2018-12-30T10:04:22.283Z,1015.82
2018-12-30T10:05:22.356Z,1015.82
2018-12-30T10:06:22.285Z,1015.77
2018-12-30T10:07:22.254Z,1015.73
2018-12-30T10:08:22.247Z,1015.80
2018-12-30T10:09:22.218Z,1015.80
2018-12-30T10:10:22.221Z,1015.84
2018-12-30T10:11:22.223Z,1015.82
2018-12-30T10:12:22.183Z,1015.86
2018-12-30T10:13:22.181Z,1015.90
2018-12-30T10:14:22.228Z,1015.96
2018-12-30T10:15:22.170Z,1015.93
2018-12-30T10:16:22.169Z,1015.88
2018-12-30T10:17:22.141Z,1015.87
2018-12-30T10:18:22.131Z,1015.90
2018-12-30T10:19:22.152Z,1015.93
2018-12-30T10:20:22.103Z,1015.94
2018-12-30T10:21:22.116Z,1016.00
2018-12-30T10:22:22.086Z,1016.01
2018-12-30T10:23:22.075Z,1016.02
2018-12-30T10:24:22.072Z,1015.97
2018-12-30T10:25:22.042Z,1016.00
2018-12-30T10:26:22.055Z,1016.01
2018-12-30T10:27:22.046Z,1015.99
2018-12-30T10:28:22.005Z,1016.02
2018-12-30T10:29:21.994Z,1016.06
2018-12-30T10:30:21.986Z,1016.05
2018-12-30T10:31:21.997Z,1016.13
2018-12-30T10:32:21.968Z,1016.08
2018-12-30T10:33:22.020Z,1016.21
2018-12-30T10:34:21.954Z,1016.19
2018-12-30T10:35:21.926Z,1016.18
2018-12-30T10:36:21.947Z,1016.22
2018-12-30T10:37:21.951Z,1016.21
2018-12-30T10:38:21.917Z,1016.21
2018-12-30T10:39:21.888Z,1016.23
2018-12-30T10:40:21.875Z,1016.23
2018-12-30T10:41:21.943Z,1016.19
2018-12-30T10:42:21.857Z,1016.20
2018-12-30T10:43:21.854Z,1016.18
2018-12-30T10:44:21.827Z,1016.19
2018-12-30T10:45:21.827Z,1016.16
2018-12-30T10:46:21.831Z,1016.21
2018-12-30T10:47:21.816Z,1016.18
2018-12-30T10:48:21.802Z,1016.19
2018-12-30T10:49:21.788Z,1016.20
2018-12-30T10:50:21.777Z,1016.15
2018-12-30T10:51:21.754Z,1016.19
2018-12-30T10:52:21.763Z,1016.15
2018-12-30T10:53:21.728Z,1016.18
2018-12-30T10:54:21.716Z,1016.18
2018-12-30T10:55:21.708Z,1016.18
2018-12-30T10:56:21.737Z,1016.18
2018-12-30T10:57:21.719Z,1016.21
2018-12-30T10:58:21.697Z,1016.19
2018-12-30T10:59:21.658Z,1016.25
2018-12-30T11:00:21.656Z,1016.23
2018-12-30T11:01:21.696Z,1016.24
2018-12-30T11:02:21.664Z,1016.25
2018-12-30T11:03:21.621Z,1016.24
2018-12-30T11:04:21.629Z,1016.21
2018-12-30T11:05:21.593Z,1016.14
2018-12-30T11:06:21.600Z,1016.22
2018-12-30T11:07:21.596Z,1016.17
2018-12-30T11:08:21.560Z,1016.15
2018-12-30T11:09:21.562Z,1016.16
2018-12-30T11:10:21.539Z,1016.13
2018-12-30T11:11:21.527Z,1016.11
2018-12-30T11:12:21.541Z,1016.08
2018-12-30T11:13:21.506Z,1016.08
2018-12-30T11:14:21.499Z,1016.10
2018-12-30T11:15:21.559Z,1016.13
2018-12-30T11:16:21.491Z,1016.15
2018-12-30T11:17:21.482Z,1016.14
2018-12-30T11:18:21.455Z,1016.14
2018-12-30T11:19:21.456Z,1016.09
2018-12-30T11:20:21.444Z,1016.12
2018-12-30T11:21:21.456Z,1016.06
2018-12-30T11:22:21.429Z,1016.03
2018-12-30T11:23:21.394Z,1016.00
2018-12-30T11:24:21.392Z,1015.95
2018-12-30T11:25:21.380Z,1015.89
2018-12-30T11:26:21.394Z,1015.90
2018-12-30T11:27:21.372Z,1015.88
2018-12-30T11:28:21.342Z,1015.84
2018-12-30T11:29:21.325Z,1015.85
2018-12-30T11:30:21.313Z,1015.85
2018-12-30T11:31:21.308Z,1015.79
2018-12-30T11:32:21.391Z,1015.76
2018-12-30T11:33:21.300Z,1015.72
2018-12-30T11:34:21.270Z,1015.66
2018-12-30T11:35:21.277Z,1015.65
2018-12-30T11:36:21.246Z,1015.62
2018-12-30T11:37:21.268Z,1015.58
2018-12-30T11:38:21.283Z,1015.55
2018-12-30T11:39:21.213Z,1015.58
2018-12-30T11:40:21.204Z,1015.60
2018-12-30T11:41:21.191Z,1015.63
2018-12-30T11:42:21.181Z,1015.56
2018-12-30T11:43:21.222Z,1015.58
2018-12-30T11:44:21.159Z,1015.52
2018-12-30T11:45:21.147Z,1015.51
2018-12-30T11:46:21.139Z,1015.55
2018-12-30T11:47:21.124Z,1015.54
2018-12-30T11:48:21.136Z,1015.56
2018-12-30T11:49:21.137Z,1015.60
2018-12-30T11:50:21.091Z,1015.56
2018-12-30T11:51:21.081Z,1015.57
2018-12-30T11:52:21.069Z,1015.55
2018-12-30T11:53:21.083Z,1015.60
2018-12-30T11:54:21.045Z,1015.58
2018-12-30T11:55:21.063Z,1015.57
2018-12-30T11:56:21.025Z,1015.55
2018-12-30T11:57:21.011Z,1015.56
2018-12-30T11:58:21.026Z,1015.51
2018-12-30T11:59:20.991Z,1015.53
2018-12-30T12:00:20.980Z,1015.49
2018-12-30T12:01:20.988Z,1015.44
2018-12-30T12:02:24.124Z,1015.41
2018-12-30T12:03:20.970Z,1015.34
2018-12-30T12:04:20.936Z,1015.31
2018-12-30T12:05:20.924Z,1015.32